Latest Weather Observations for Cape Nelson

IDV60801

Issued at 10:32 am EDT Tuesday 17 October 2017 (issued every 30 minutes, with the page automatically refreshed every 10 minutes)

About weather observations | Map of weather stations | Latest weather observations for VIC | Other Formats
Station Details ID: 090184 Name: CAPE NELSON LIGHTHOUSE Lat: -38.43 Lon: 141.54 Height: 45.4 m
Data from the previous 72 hours. | See also: Recent months at Cape Nelson
Date/Time
EDT
Temp
°C
App
Temp
°C
Dew
Point
°C
Rel
Hum
%
Delta-T
°C
Wind Press
QNH
hPa
Press
MSL
hPa
Rain since
9am
mm
Dir  Spd
km/h
Gust
km/h
Spd
kts
Gust
kts
17/10:30am 25.6 19.8 9.4 36 8.9 N 30 44 16 24 1019.2 1019.2 0.0
17/10:11am 25.2 19.4 9.5 37 8.6 N 30 48 16 26 1019.2 1019.2 0.0
17/10:00am 24.6 18.1 8.1 35 8.8 N 32 46 17 25 1019.1 1019.1 0.0
17/09:30am 23.5 17.0 8.0 37 8.2 N 32 52 17 28 1019.1 1019.1 0.0
17/09:07am 22.5 16.0 8.2 40 7.5 N 32 50 17 27 1019.0 1019.0 0.0
17/09:00am 22.2 16.1 8.3 41 7.3 N 30 46 16 25 1019.0 1019.0 0.0
17/08:30am 20.6 15.0 8.9 47 6.2 N 28 37 15 20 1019.0 1019.0 0.0
17/08:00am 19.7 13.6 8.1 47 6.0 N 30 41 16 22 1018.7 1018.7 0.0
17/07:30am 19.1 13.3 7.8 48 5.8 N 28 39 15 21 1018.7 1018.7 0.0
17/07:00am 19.2 12.9 7.6 47 5.9 N 30 44 16 24 1018.4 1018.4 0.0
17/06:33am 18.8 13.1 8.5 51 5.3 N 28 46 15 25 1018.1 1018.1 0.0
17/06:30am 18.6 12.6 8.6 52 5.2 N 30 41 16 22 1018.1 1018.1 0.0
17/06:00am 17.9 12.2 9.8 59 4.3 N 30 41 16 22 1017.9 1017.9 0.0
17/05:30am 18.1 12.7 11.0 63 3.8 N 30 39 16 21 1017.7 1017.7 0.0
17/05:00am 18.4 12.9 11.7 65 3.7 N 32 43 17 23 1017.7 1017.7 0.0
17/04:30am 18.2 13.0 11.7 66 3.6 N 30 41 16 22 1017.9 1017.9 0.0
17/04:00am 17.9 14.0 12.1 69 3.2 N 24 35 13 19 1018.0 1018.0 0.0
17/03:30am 17.2 14.2 12.1 72 2.8 NNE 19 26 10 14 1018.3 1018.3 0.0
17/03:00am 17.5 13.9 13.2 76 2.4 NNE 24 32 13 17 1018.5 1018.5 0.0
17/02:30am 17.3 14.2 13.4 78 2.2 NNE 22 30 12 16 1018.7 1018.7 0.0
17/02:00am 17.3 14.2 13.4 78 2.2 NE 22 26 12 14 1019.3 1019.3 0.0
17/01:30am 17.2 14.4 13.1 77 2.3 NE 20 24 11 13 1019.7 1019.7 0.0
17/01:00am 17.2 14.4 13.1 77 2.3 NE 20 24 11 13 1020.1 1020.1 0.0
17/12:30am 17.1 14.2 12.8 76 2.4 NNE 20 24 11 13 1020.4 1020.4 0.0
17/12:00am 16.9 13.8 12.2 74 2.6 NNE 20 24 11 13 1020.6 1020.6 0.0
 
Date/Time
EDT
Temp
°C
App
Temp
°C
Dew
Point
°C
Rel
Hum
%
Delta-T
°C
Wind Press
QNH
hPa
Press
MSL
hPa
Rain since
9am
mm
Dir  Spd
km/h
Gust
km/h
Spd
kts
Gust
kts
16/11:30pm 17.5 14.3 12.0 70 3.0 NE 20 26 11 14 1020.8 1020.8 0.0
16/11:00pm 17.2 13.7 13.5 79 2.1 NE 24 32 13 17 1021.0 1021.0 0.0
16/10:30pm 16.3 13.6 13.4 83 1.6 NE 20 24 11 13 1021.3 1021.3 0.0
16/10:00pm 16.0 12.9 13.5 85 1.4 NE 22 28 12 15 1021.3 1021.3 0.0
16/09:30pm 16.0 13.4 13.7 86 1.3 NE 20 26 11 14 1021.3 1021.3 0.0
16/09:00pm 15.8 13.1 13.5 86 1.3 NE 20 26 11 14 1021.3 1021.3 0.0
16/08:30pm 15.6 12.8 13.3 86 1.3 NE 20 26 11 14 1021.0 1021.0 0.0
16/08:00pm 15.7 12.9 13.2 85 1.4 NE 20 24 11 13 1020.9 1020.9 0.0
16/07:30pm 16.2 13.4 13.3 83 1.6 NE 20 28 11 15 1020.6 1020.6 0.0
16/07:00pm 16.6 14.1 13.5 82 1.7 NE 19 22 10 12 1020.6 1020.6 0.0
16/06:30pm 16.7 14.2 13.6 82 1.8 NE 19 24 10 13 1020.4 1020.4 0.0
16/06:00pm 17.2 14.6 13.7 80 2.0 ENE 20 26 11 14 1020.6 1020.6 0.0
16/05:30pm 17.6 15.6 13.9 79 2.1 ENE 17 24 9 13 1020.6 1020.6 0.0
16/05:00pm 18.2 16.3 14.3 78 2.2 E 17 26 9 14 1020.7 1020.7 0.0
16/04:30pm 17.8 15.4 13.7 77 2.3 E 19 24 10 13 1020.9 1020.9 0.0
16/04:00pm 18.0 15.5 13.5 75 2.5 E 19 22 10 12 1021.1 1021.1 0.0
16/03:30pm 18.2 16.5 13.5 74 2.7 ENE 15 24 8 13 1021.2 1021.2 0.0
16/03:00pm 19.1 17.7 14.6 75 2.6 ENE 15 20 8 11 1021.6 1021.6 0.0
16/02:30pm 18.6 16.3 14.1 75 2.6 ENE 19 24 10 13 1021.8 1021.8 0.0
16/02:00pm 18.6 16.6 13.9 74 2.7 ENE 17 22 9 12 1022.1 1022.1 0.0
16/01:30pm 18.2 15.6 13.1 72 2.9 ENE 19 24 10 13 1022.3 1022.3 0.0
16/01:00pm 18.1 15.8 13.0 72 2.9 ENE 17 22 9 12 1022.4 1022.4 0.0
16/12:30pm 17.5 15.1 12.6 73 2.7 ENE 17 22 9 12 1022.7 1022.7 0.0
16/12:00pm 16.6 13.7 12.2 75 2.4 ENE 19 24 10 13 1023.0 1023.0 0.0
16/11:30am 16.2 13.3 12.2 77 2.2 ENE 19 24 10 13 1023.4 1023.4 0.0
16/11:00am 15.4 13.1 11.8 79 1.9 ENE 15 22 8 12 1023.9 1023.9 0.0
16/10:30am 14.7 12.0 11.8 83 1.6 ENE 17 22 9 12 1024.0 1024.0 0.0
16/10:00am 13.7 10.3 11.4 86 1.2 ENE 20 24 11 13 1023.9 1023.9 0.0
16/09:30am 13.6 10.0 11.8 89 1.0 NE 22 28 12 15 1023.7 1023.7 0.0
16/09:00am 12.5 9.3 11.1 91 0.7 NE 19 28 10 15 1023.6 1023.6 0.0
16/08:30am 11.4 7.7 10.1 92 0.7 NE 20 30 11 16 1023.5 1023.5 0.0
16/08:00am 11.0 6.0 9.6 91 0.7 ENE 26 33 14 18 1023.4 1023.4 0.0
16/07:30am 11.4 6.9 10.0 91 0.7 ENE 24 35 13 19 1023.4 1023.4 0.0
16/07:00am 11.5 6.3 10.1 91 0.7 ENE 28 37 15 20 1022.9 1022.9 0.0
16/06:30am 11.5 5.5 10.1 91 0.7 ENE 32 39 17 21 1022.6 1022.6 0.0
16/06:00am 11.7 6.8 10.1 90 0.8 ENE 26 33 14 18 1022.6 1022.6 0.0
16/05:30am 11.9 7.9 10.3 90 0.8 ENE 22 30 12 16 1022.6 1022.6 0.0
16/05:00am 12.2 7.1 10.6 90 0.8 ENE 28 35 15 19 1022.6 1022.6 0.0
16/04:30am 12.4 8.5 10.8 90 0.8 ENE 22 30 12 16 1022.7 1022.7 0.0
16/04:00am 12.2 7.5 10.8 91 0.7 ENE 26 33 14 18 1022.8 1022.8 0.0
16/03:30am 12.6 8.4 11.2 91 0.7 ENE 24 37 13 20 1023.0 1023.0 0.0
16/03:00am 12.5 8.3 11.1 91 0.7 ENE 24 37 13 20 1023.4 1023.4 0.0
16/02:30am 12.3 7.6 10.7 90 0.8 ENE 26 33 14 18 1023.7 1023.7 0.0
16/02:00am 12.3 8.7 10.7 90 0.8 ENE 20 30 11 16 1024.1 1024.1 0.0
16/01:30am 12.2 8.2 10.6 90 0.8 E 22 32 12 17 1024.5 1024.5 0.0
16/01:00am 12.2 7.4 10.4 89 0.9 E 26 33 14 18 1024.7 1024.7 0.0
16/12:30am 12.2 7.8 10.4 89 0.9 E 24 35 13 19 1024.8 1024.8 0.0
16/12:00am 12.3 8.3 10.4 88 1.0 E 22 32 12 17 1025.1 1025.1 0.0
 
Date/Time
EDT
Temp
°C
App
Temp
°C
Dew
Point
°C
Rel
Hum
%
Delta-T
°C
Wind Press
QNH
hPa
Press
MSL
hPa
Rain since
9am
mm
Dir  Spd
km/h
Gust
km/h
Spd
kts
Gust
kts
15/11:30pm 12.3 7.9 10.4 88 1.0 E 24 35 13 19 1025.1 1025.1 0.0
15/11:00pm 12.1 7.6 10.2 88 1.0 E 24 32 13 17 1025.2 1025.2 0.0
15/10:30pm 12.1 6.8 10.0 87 1.1 E 28 33 15 18 1025.1 1025.1 0.0
15/10:00pm 12.0 7.8 9.9 87 1.1 E 22 30 12 16 1025.1 1025.1 0.0
15/09:30pm 12.1 7.2 9.8 86 1.2 E 26 33 14 18 1025.1 1025.1 0.0
15/09:00pm 12.3 7.8 10.0 86 1.2 E 24 32 13 17 1025.0 1025.0 0.0
15/08:30pm 12.3 8.1 9.9 85 1.2 E 22 30 12 16 1024.7 1024.7 0.0
15/08:00pm 12.2 8.0 9.8 85 1.2 E 22 30 12 16 1024.7 1024.7 0.0
15/07:30pm 12.5 8.3 9.9 84 1.3 E 22 28 12 15 1024.7 1024.7 0.0
15/07:00pm 12.7 8.9 9.9 83 1.4 ESE 20 26 11 14 1024.7 1024.7 0.0
15/06:30pm 12.9 9.3 9.7 81 1.6 ESE 19 28 10 15 1024.6 1024.6 0.0
15/06:00pm 13.4 10.6 10.0 80 1.7 ESE 15 24 8 13 1024.7 1024.7 0.0
15/05:30pm 13.8 10.7 10.2 79 1.9 SE 17 24 9 13 1024.8 1024.8 0.0
15/05:00pm 14.1 11.8 10.3 78 2.0 ESE 13 19 7 10 1024.7 1024.7 0.0
15/04:30pm 14.3 11.2 10.3 77 2.1 SE 17 24 9 13 1024.7 1024.7 0.0
15/04:00pm 14.3 11.5 10.1 76 2.2 SE 15 22 8 12 1025.1 1025.1 0.0
15/03:30pm 14.6 11.9 10.2 75 2.3 SE 15 20 8 11 1025.3 1025.3 0.0
15/03:00pm 14.5 11.6 9.7 73 2.5 SE 15 20 8 11 1025.4 1025.4 0.0
15/02:30pm 14.8 12.1 10.2 74 2.4 SE 15 20 8 11 1025.6 1025.6 0.0
15/02:00pm 14.9 11.9 10.5 75 2.3 SE 17 24 9 13 1025.6 1025.6 0.0
15/01:30pm 14.7 11.9 10.1 74 2.4 SE 15 20 8 11 1025.7 1025.7 0.0
15/01:00pm 14.5 12.1 9.9 74 2.4 SSE 13 19 7 10 1025.9 1025.9 0.0
15/12:30pm 14.3 12.2 9.9 75 2.3 SSE 11 17 6 9 1026.2 1026.2 0.0
15/12:00pm 14.0 11.8 9.4 74 2.3 SSE 11 17 6 9 1026.2 1026.2 0.0
15/11:30am 14.3 12.7 10.1 76 2.2 ESE 9 17 5 9 1026.4 1026.4 0.0
15/11:00am 13.7 11.7 10.1 79 1.9 ESE 11 15 6 8 1026.5 1026.5 0.0
15/10:30am 13.2 11.5 10.0 81 1.7 SE 9 11 5 6 1026.5 1026.5 0.0
15/10:00am 13.0 11.4 10.2 83 1.4 E 9 13 5 7 1026.2 1026.2 0.0
15/09:30am 12.3 10.6 9.7 84 1.3 ESE 9 11 5 6 1026.1 1026.1 0.0
15/09:00am 12.1 10.0 9.7 85 1.2 ESE 11 15 6 8 1026.0 1026.0 0.0
15/08:30am 11.8 10.0 9.4 85 1.2 SE 9 15 5 8 1025.9 1025.9 0.0
15/08:00am 11.5 10.6 9.1 85 1.2 E 4 9 2 5 1025.5 1025.5 0.0
15/07:30am 11.1 9.7 8.7 85 1.2 SE 6 11 3 6 1025.4 1025.4 0.0
15/07:00am 11.0 9.5 8.6 85 1.2 SE 6 9 3 5 1025.0 1025.0 0.0
15/06:30am 11.1 9.5 8.7 85 1.2 SSE 7 13 4 7 1024.9 1024.9 0.0
15/06:00am 11.1 8.7 8.7 85 1.2 S 11 17 6 9 1024.7 1024.7 0.0
15/05:30am 11.3 9.0 8.9 85 1.2 S 11 17 6 9 1024.8 1024.8 0.0
15/05:00am 11.4 9.4 8.8 84 1.3 S 9 13 5 7 1024.8 1024.8 0.0
15/04:30am 11.3 9.3 8.7 84 1.3 S 9 13 5 7 1024.8 1024.8 0.0
15/04:00am 11.6 9.3 9.0 84 1.3 S 11 15 6 8 1024.8 1024.8 0.0
15/03:30am 11.6 9.7 9.0 84 1.3 SE 9 13 5 7 1024.6 1024.6 0.0
15/03:00am 11.6 10.1 9.0 84 1.3 S 7 13 4 7 1024.9 1024.9 0.0
15/02:30am 11.2 9.6 8.6 84 1.3 SSE 7 11 4 6 1025.2 1025.2 0.0
15/02:00am 11.1 9.6 8.5 84 1.3 SSE 6 11 3 6 1025.3 1025.3 0.0
15/01:30am 10.9 9.7 8.1 83 1.4 ESE 4 7 2 4 1025.4 1025.4 0.0
15/01:00am 11.1 9.6 8.3 83 1.4 S 6 13 3 7 1025.4 1025.4 0.0
15/12:30am 11.3 9.3 8.5 83 1.4 SSE 9 17 5 9 1025.4 1025.4 0.0
15/12:00am 11.2 9.1 8.4 83 1.4 S 9 13 5 7 1025.4 1025.4 0.0
 
Date/Time
EDT
Temp
°C
App
Temp
°C
Dew
Point
°C
Rel
Hum
%
Delta-T
°C
Wind Press
QNH
hPa
Press
MSL
hPa
Rain since
9am
mm
Dir  Spd
km/h
Gust
km/h
Spd
kts
Gust
kts
14/11:30pm 11.0 8.9 8.1 82 1.4 S 9 13 5 7 1025.5 1025.5 0.0
14/11:00pm 11.0 8.8 7.7 80 1.6 S 9 9 5 5 1025.5 1025.5 0.0
14/10:30pm 11.3 9.5 7.8 79 1.7 S 7 11 4 6 1025.8 1025.8 0.0
14/10:00pm 11.6 9.0 7.9 78 1.8 S 11 13 6 7 1025.8 1025.8 0.0
14/09:30pm 11.8 8.5 7.9 77 1.9 S 15 22 8 12 1025.8 1025.8 0.0
14/09:00pm 12.0 9.0 7.9 76 2.0 S 13 17 7 9 1025.8 1025.8 0.0
14/08:30pm 12.1 9.1 7.8 75 2.1 S 13 19 7 10 1025.8 1025.8 0.0
14/08:00pm 12.3 9.8 8.0 75 2.1 S 11 17 6 9 1025.5 1025.5 0.0
14/07:30pm 12.5 9.5 7.8 73 2.3 S 13 17 7 9 1025.4 1025.4 0.0
14/07:00pm 13.1 10.6 8.2 72 2.4 S 11 20 6 11 1025.3 1025.3 0.0
14/06:30pm 13.5 11.0 8.4 71 2.6 S 11 15 6 8 1025.2 1025.2 0.0
14/06:00pm 14.1 11.3 8.7 70 2.7 S 13 20 7 11 1025.1 1025.1 0.0
14/05:30pm 14.7 12.4 9.1 69 2.9 S 11 15 6 8 1025.1 1025.1 0.0
14/05:00pm 15.2 13.4 9.3 68 3.0 NE 9 15 5 8 1025.1 1025.1 0.0
14/04:30pm 15.2 13.3 9.1 67 3.1 SE 9 15 5 8 1025.1 1025.1 0.0
14/04:00pm 15.2 12.5 9.1 67 3.1 S 13 20 7 11 1025.2 1025.2 0.0
14/03:30pm 15.9 14.1 9.3 65 3.4 ENE 9 13 5 7 1025.3 1025.3 0.0
14/03:00pm 16.0 14.1 9.2 64 3.5 NNW 9 19 5 10 1025.4 1025.4 0.0
14/02:30pm 15.7 13.8 9.1 65 3.4 WNW 9 15 5 8 1025.5 1025.5 0.0
14/02:00pm 16.0 14.3 9.7 66 3.3 WNW 9 17 5 9 1025.6 1025.6 0.0
14/01:30pm 15.8 13.2 9.5 66 3.3 WNW 13 19 7 10 1025.7 1025.7 0.0
14/01:00pm 15.8 13.9 9.2 65 3.4 NW 9 17 5 9 1025.9 1025.9 0.0
14/12:30pm 15.5 13.7 9.4 67 3.2 WSW 9 17 5 9 1025.9 1025.9 0.0
14/12:00pm 14.3 11.9 8.5 68 2.9 WSW 11 15 6 8 1026.1 1026.1 0.0
14/11:30am 14.4 12.5 9.0 70 2.8 W 9 13 5 7 1026.4 1026.4 0.0
14/11:00am 15.1 13.4 9.7 70 2.8 WNW 9 13 5 7 1026.4 1026.4 0.0

Other Formats:

Comma delimited format used in spreadsheet applications
http://www.bom.gov.au/fwo/IDV60801/IDV60801.94826.axf

JavaScript Object Notation format (JSON) in row-major order
http://www.bom.gov.au/fwo/IDV60801/IDV60801.94826.json